• Join FlightAware (Why Join?)
  • Login
  • US Flag 
01:01PM EDT


 

Airport Tracker/Info


-or-


 

Live Flight TrackerFlight Track Log ✈ NDU48 ✈ 03-May-2013 ✈ KFFM - KGFK

Flight Track Log - Related Links

Times and Time Zones

All times are in EDT time to prevent confusion due to time zone crossing. See the NDU48 flight status page for this flight to view local times or setup timezone preferences in your user account.

Time Position Orientation Groundspeed Altitude Reporting Facility
EDT Latitude Longitude Course Direction KTS MPH feet Rate Location/Type
11:31AM 46.2450 -96.1492 338° Northwest 102 117 6,000  Level Minneapolis Center
11:32AM 46.2522 -96.1786 290° West 103 119 6,000  Level Minneapolis Center
11:33AM 46.2800 -96.1889 346° North 99 114 6,000  Level Minneapolis Center
11:34AM 46.3069 -96.2075 334° Northwest 104 120 6,000  Level Minneapolis Center
11:35AM 46.3339 -96.2258 335° Northwest 105 121 6,100  Climbing Minneapolis Center
11:36AM 46.4398 -96.2439 338° Northwest  Level FlightAware Approximate
11:36AM 46.3600 -96.2369 344° North 101 116 6,100  Level Minneapolis Center
11:37AM 46.3867 -96.2542 336° Northwest 99 114 6,100  Level Minneapolis Center
11:38AM 46.4153 -96.2692 340° North 107 123 6,100  Level Minneapolis Center
11:39AM 46.4447 -96.2872 337° Northwest 108 124 6,100  Level Minneapolis Center
11:40AM 46.4728 -96.3042 337° Northwest 106 122 6,100 -60 Level Minneapolis Center
11:41AM 46.4986 -96.3172 341° North 103 119 6,000  Descending Minneapolis Center
11:42AM 46.5272 -96.3347 337° Northwest 104 120 6,100  Climbing Minneapolis Center
11:43AM 46.5564 -96.3539 336° Northwest 110 127 6,100  Level Minneapolis Center
11:44AM 46.5853 -96.3661 344° North 104 120 6,100  Level Minneapolis Center
11:45AM 46.6131 -96.3819 339° North 108 124 6,100  Level Minneapolis Center
11:46AM 46.6422 -96.4036 333° Northwest 114 131 6,100  Level Minneapolis Center
11:47AM 46.6725 -96.4125 349° North 107 123 6,100  Level Minneapolis Center
11:48AM 46.7011 -96.4350 332° Northwest 114 131 6,200  Climbing Minneapolis Center
11:49AM 46.7306 -96.4522 338° Northwest 110 127 6,200 -60 Level Minneapolis Center
11:50AM 46.7586 -96.4678 339° North 111 128 6,100 -60 Descending Minneapolis Center
11:51AM 46.7892 -96.4833 341° North 112 129 6,100 -60 Level Minneapolis Center
11:52AM 46.8194 -96.5053 334° Northwest 115 132 6,000 -60 Descending Minneapolis Center
11:53AM 46.8497 -96.5197 342° North 110 127 6,000  Level Minneapolis Center
11:54AM 46.8839 -96.5406 337° Northwest 110 127 6,100  Climbing Minneapolis Center
11:56AM 46.9139 -96.5594 337° Northwest 114 131 6,100  Level Minneapolis Center
11:57AM 46.9500 -96.5775 341° North 112 129 6,100  Level Minneapolis Center
11:58AM 46.9792 -96.5933 340° North 107 123 6,100  Level Minneapolis Center
11:59AM 47.0078 -96.6131 335° Northwest 110 127 6,200  Climbing Minneapolis Center
12:00PM 47.0314 -96.6258 340° North 112 129 6,100 -60 Descending Minneapolis Center
12:01PM 47.0658 -96.6464 338° Northwest 110 127 6,100  Level Minneapolis Center
12:02PM 47.0961 -96.6631 339° North 111 128 6,100  Level Minneapolis Center
12:03PM 47.1250 -96.6839 334° Northwest 111 128 6,100  Level Minneapolis Center
12:04PM 47.1561 -96.7000 341° North 112 129 6,100  Level Minneapolis Center
12:04PM 47.1703 -96.7094 336° Northwest 111 128 6,100  Level Minneapolis Center
12:05PM 47.1919 -96.7211 340° North 110 127 6,100 -60 Level Minneapolis Center
12:06PM 47.2211 -96.7361 341° North 111 128 6,000 -60 Descending Minneapolis Center
12:07PM 47.2517 -96.7542 338° Northwest 113 130 6,000 -180 Level Minneapolis Center
12:08PM 47.2783 -96.7739 333° Northwest 112 129 5,700 -420 Descending Minneapolis Center
12:09PM 47.3075 -96.8064 323° Northwest 117 135 5,200 -540 Descending Minneapolis Center
12:10PM 47.3383 -96.8261 337° Northwest 120 138 4,600 -660 Descending Minneapolis Center
12:11PM 47.3614 -96.8531 322° Northwest 123 142 4,100 -420 Descending Minneapolis Center
12:11PM 47.3719 -96.8575 344° North 122 140 4,100 -120 Level Minneapolis Center
12:12PM 47.4000 -96.8808 331° Northwest 115 132 4,000 -60 Descending Minneapolis Center
12:13PM 47.4256 -96.9056 327° Northwest 107 123 4,000 -180 Level Minneapolis Center
12:14PM 47.4467 -96.9256 327° Northwest 106 122 3,700 -540 Descending Minneapolis Center
12:15PM 47.4708 -96.9431 334° Northwest 113 130 3,100 -720 Descending Minneapolis Center
12:16PM 47.4831 -96.9481 345° North 115 132 2,900 -300 Descending Minneapolis Center
12:16PM 47.4975 -96.9633 324° Northwest 103 119 2,800 -120 Descending Minneapolis Center
12:17PM 47.5033 -96.9706 320° Northwest 96 110 2,800  Level Minneapolis Center
12:18PM 47.5272 -97.0014 319° Northwest 107 123 2,800  Level Minneapolis Center
12:18PM 47.5439 -97.0208 322° Northwest 107 123 2,900 60 Climbing Minneapolis Center
12:19PM 47.5525 -97.0289 328° Northwest 108 124 2,900  Level Minneapolis Center
12:20PM 47.5772 -97.0561 323° Northwest 106 122 2,900 -60 Level Minneapolis Center
12:21PM 47.5994 -97.0822 322° Northwest 106 122 2,800  Descending Minneapolis Center
12:22PM 47.6233 -97.1117 320° Northwest 106 122 2,900  Climbing Minneapolis Center
12:23PM 47.6486 -97.1339 329° Northwest 104 120 2,900 -120 Level Minneapolis Center
12:23PM 47.6639 -97.1439 336° Northwest 103 119 2,800 -120 Descending Minneapolis Center
12:24PM 47.6761 -97.1544 330° Northwest 101 116 2,800 60 Level Minneapolis Center
12:24PM 47.6886 -97.1647 331° Northwest 99 114 2,900  Climbing Minneapolis Center
12:25PM 47.7003 -97.1758 327° Northwest 97 112 2,800  Descending Minneapolis Center
12:25PM 47.7150 -97.1853 337° Northwest 103 119 2,900 60 Climbing Minneapolis Center
12:26PM 47.7258 -97.1861 357° North 99 114 2,900 60 Level Minneapolis Center
12:27PM 47.7447 -97.1900 352° North 103 119 3,000  Climbing Minneapolis Center
12:27PM 47.7511 -97.1883 10° North 99 114 2,900 -240 Descending Minneapolis Center
12:28PM 47.7736 -97.1822 10° North 103 119 2,800 -120 Descending Minneapolis Center
12:28PM 47.7786 -97.1828 356° North 99 114 2,800  Level Minneapolis Center
12:28PM 47.8008 -97.1839 358° North 106 122 2,800 -240 Level Minneapolis Center
12:29PM 47.8078 -97.1842 358° North 101 116 2,600 -240 Descending Minneapolis Center
12:29PM 47.8281 -97.1828 North 102 117 2,600  Level Minneapolis Center
12:30PM 47.8411 -97.1853 353° North 102 117 2,600  Level Minneapolis Center
12:30PM 47.8489 -97.1825 13° North 91 105 2,600 -240 Level Minneapolis Center
12:31PM 47.8642 -97.1844 355° North 95 109 2,400 -420 Descending Minneapolis Center
12:32PM 47.8781 -97.1808 10° North 83 96 2,100 -540 Descending Minneapolis Center
12:32PM 47.8850 -97.1842 342° North 86 99 1,900 -420 Descending Minneapolis Center
12:33PM 47.9011 -97.1803 North 79 91 1,700 -420 Descending Minneapolis Center
12:33PM 47.9064 -97.1822 346° North 81 93 1,500 -420 Descending Minneapolis Center
12:34PM 47.9203 -97.1836 356° North 75 86 1,300 -300 Descending Minneapolis Center
12:34PM 47.9294 -97.1856 352° North 79 91 1,200 -300 Descending Minneapolis Center